x

Mid Gulf - 180 Nm South Of Southwest Pass, La (42001) Wave Buoy

2:50am - Mon 20th Oct 2014 All times are UTC.

  • Sig Wave height 1.6ft
  • Peak Period 4s
  • Average Period 3s
  • Wind
    13mph, 16mph gusts
  • Sea Temp 82°f
  • Air Temp 80°f
  • Sea Pressure 1016.2mb

More Historic Weather Station data

Upgrade to MSW Pro to gain access to the past 30 days of data for over 8000 Wavebouys and Weather Stations around the globe.

Join Pro

Comparision Forecast

View Surf forecast
   
Mon 10/20 2:50am 1.6ft 4s 3s 13 16 mph 1016.2mb 82f 80f
1:50am 2ft 4s 3s 11 13 mph 1016mb 82f 80f
12:50am 2ft 4s 3s 11 13 mph 1015.6mb 82f 80f
Sun 10/19 11:50pm 1.6ft 4s 3s 11 13 mph 1015.2mb 82f 80f
10:50pm 1.6ft 4s 3s 11 16 mph 1014.7mb 82f 80f
9:50pm 1.6ft 3s 3s 11 13 mph 1014.5mb 82f 80f
8:50pm 1.6ft 3s 3s 11 13 mph 1014.8mb 82f 80f
7:50pm 2ft 3s 3s 13 16 mph 1015.1mb 82f 80f
6:50pm 2ft 4s 3s 13 16 mph 1015.7mb 82f 80f
5:50pm 1.6ft 3s 3s 11 16 mph 1016.4mb 82f 80f
4:50pm 1.6ft 4s 3s 11 16 mph 1016.9mb 82f 80f
3:50pm 1.6ft 3s 3s 11 13 mph 1017.2mb 82f 80f
2:50pm 1.3ft 3s 3s 13 18 mph 1016.9mb 82f 80f
1:50pm 1.3ft 3s 3s 13 16 mph 1016.4mb 82f 80f
12:50pm 1ft 3s 3s 11 16 mph 1015.8mb 82f 80f
11:50am 0.7ft  -  3s 11 13 mph 1015.4mb 82f 80f
10:50am 0.7ft  -  3s 11 13 mph 1015.1mb 82f 79f
9:50am 0.7ft  -  3s 9 11 mph 1015.1mb 82f 79f
8:50am 0.7ft  -  3s 9 11 mph 1015.4mb 82f 79f
7:50am 0.7ft  -  3s 9 13 mph 1015.6mb 82f 79f
6:50am 0.7ft  -  4s 9 11 mph 1016.3mb 82f 79f
5:50am 0.7ft  -  4s 9 11 mph 1016.6mb 82f 79f
4:50am 0.7ft  -  3s 7 9 mph 1016.8mb 82f 79f
3:50am 0.7ft  -  4s 9 11 mph 1017mb 82f 79f
2:50am 0.7ft  -  3s 9 11 mph 1016.6mb 82f 79f
1:50am 0.7ft  -  4s 11 13 mph 1015.9mb 82f 79f
12:50am 0.7ft  -  4s 11 13 mph 1015.4mb 82f 79f
Sat 10/18 11:50pm 0.7ft  -  4s 9 13 mph 1015.2mb 82f 79f
10:50pm 0.7ft  -  4s 7 11 mph 1014.9mb 82f 79f
9:50pm 0.7ft  -  4s 7 9 mph 1014.9mb 83f 78f
8:50pm 0.7ft  -  4s 7 9 mph 1015.1mb 83f 78f
7:50pm 0.7ft  -  4s 2 7 mph 1015.7mb 83f 78f
6:50pm 0.7ft  -  4s 4 7 mph 1016.1mb 83f 78f
5:50pm 0.7ft  -  4s 4 7 mph 1016.9mb 83f 78f
4:50pm 0.7ft  -  4s 4 7 mph 1017.5mb 82f 78f
3:50pm 0.7ft  -  4s 4 7 mph 1017.6mb 82f 78f
2:50pm 0.7ft  -  4s 4 7 mph 1017.8mb 82f 78f
1:50pm 0.7ft  -  4s 4
mph
1017.2mb 82f 78f
12:50pm 0.7ft  -  4s 2 4 mph 1016.5mb 82f 77f
11:50am 0.7ft  -  4s 4 7 mph 1015.9mb 82f 77f
10:50am 0.7ft  -  4s 7 11 mph 1015.6mb 82f 77f
9:50am 0.7ft  -  4s 4 7 mph 1015.3mb 82f 77f
8:50am 0.7ft  -  4s 4 7 mph 1015.1mb 82f 77f
7:50am 0.7ft  -  4s 7 11 mph 1015.5mb 82f 77f
6:50am 0.7ft  -  4s 4 7 mph 1015.9mb 82f 77f
5:50am 0.7ft  -  4s 4 9 mph 1016.3mb 82f 77f
4:50am 0.7ft  -  4s 4 7 mph 1016.7mb 82f 77f
3:50am 0.7ft  -  4s 4 7 mph 1017mb 82f 77f
2:50am 0.7ft  -  4s 7 9 mph 1016.8mb 82f 77f
1:50am 0.7ft  -  4s 2 7 mph 1016.3mb 82f 78f
12:50am 0.7ft  -  4s 7 9 mph 1015.6mb 82f 78f
Fri 10/17 11:50pm 0.7ft  -  4s 4 7 mph 1015.4mb 82f 78f
10:50pm 0.7ft  -  4s 2 7 mph 1015.2mb 83f 79f
9:50pm 0.7ft  -  4s 4 9 mph 1015.3mb 83f 78f
8:50pm 0.7ft  -  4s 2 4 mph 1015.5mb 83f 79f
7:50pm 0.7ft  -  4s 2 4 mph 1016mb 83f 78f
6:50pm 0.7ft  -  4s  -  2 mph 1016.6mb 83f 78f
5:50pm 1ft 4s 4s 2 7 mph 1017.3mb 82f 78f
4:50pm 0.7ft  -  4s 4 7 mph 1017.8mb 82f 77f
3:50pm 1ft 5s 4s 7 9 mph 1017.9mb 82f 77f
2:50pm 1ft 4s 4s 4 7 mph 1017.6mb 82f 77f
1:50pm 1ft 4s 4s 4 9 mph 1017.4mb 82f 77f
12:50pm 1ft 5s 4s 4 7 mph 1016.8mb 82f 77f
11:50am 1.3ft 5s 4s 7 11 mph 1016.1mb 82f 76f
10:50am 1.3ft 5s 4s 2 4 mph 1015.5mb 82f 76f
9:50am 1.3ft 5s 4s 4 9 mph 1015mb 82f 76f
8:50am 1.3ft 5s 4s 4 9 mph 1015mb 82f 76f
7:50am 1.3ft 4s 4s 4 11 mph 1015.3mb 82f 76f
6:50am 1.3ft 5s 4s 7 9 mph 1015.8mb 82f 77f
5:50am 1.3ft 5s 4s 9 11 mph 1016.1mb 82f 77f
4:50am 1.3ft 5s 4s 7 9 mph 1016.4mb 82f 77f
3:50am 1.6ft 5s 4s 7 11 mph 1016.7mb 82f 77f
2:50am 1.6ft 5s 4s 9 11 mph 1016.8mb 82f 77f
1:50am 1.6ft 5s 5s 7 11 mph 1016.5mb 82f 77f
12:50am 1.6ft 5s 4s 9 11 mph 1016.1mb 82f 77f
Thu 10/16 11:50pm 2ft 5s 4s 7 9 mph 1015.9mb 82f 78f
10:50pm 2ft 5s 4s 7 9 mph 1015.5mb 82f 78f
9:50pm 2ft 6s 5s 9 11 mph 1015.6mb 82f 78f
8:50pm 2ft 5s 4s 7 9 mph 1015.9mb 82f 78f
7:50pm 2.5ft 6s 5s 7 11 mph 1016.2mb 82f 78f
6:50pm 2.5ft 6s 5s 7 11 mph 1016.8mb 82f 78f
5:50pm 2.5ft 6s 5s 9 11 mph 1017.6mb 82f 78f
4:50pm 2.5ft 5s 4s 9 11 mph 1018.5mb 82f 77f
3:50pm 2.5ft 6s 5s 9 11 mph 1018.7mb 82f 77f
2:50pm 2.5ft 6s 5s 9 13 mph 1018.6mb 82f 77f
1:50pm 2.5ft 6s 4s 13 18 mph 1018mb 82f 77f
12:50pm 2.5ft 6s 5s 11 13 mph 1017.5mb 82f 77f
11:50am 2.5ft 6s 5s 11 13 mph 1016.8mb 82f 77f
10:50am 2.5ft 6s 5s 9 11 mph 1016.4mb 82f 77f
9:50am 3ft 6s 5s 7 9 mph 1015.8mb 82f 77f
8:50am 2.5ft 6s 5s 7 11 mph 1015.9mb 82f 77f
7:50am 2.5ft 7s 5s 7 9 mph 1016.2mb 82f 77f
6:50am 3ft 7s 5s 7 11 mph 1016.6mb 82f 77f
5:50am 3ft 7s 5s 4 9 mph 1017.1mb 82f 76f